createdAt,value
2019-04-10T00:01:21.966Z,10.51
2019-04-10T00:03:55.322Z,10.50
2019-04-10T00:06:27.875Z,10.68
2019-04-10T00:09:00.887Z,10.67
2019-04-10T00:11:34.583Z,10.72
2019-04-10T00:15:16.114Z,10.62
2019-04-10T00:17:40.918Z,10.78
2019-04-10T00:20:12.859Z,10.87
2019-04-10T00:22:44.964Z,10.92
2019-04-10T00:25:16.893Z,11.04
2019-04-10T00:27:48.761Z,10.91
2019-04-10T00:30:22.496Z,10.86
2019-04-10T00:32:54.495Z,10.79
2019-04-10T00:35:27.671Z,10.86
2019-04-10T00:37:59.691Z,10.68
2019-04-10T00:40:33.209Z,10.64
2019-04-10T00:43:06.587Z,10.63
2019-04-10T00:45:51.443Z,10.67
2019-04-10T00:48:23.969Z,10.56
2019-04-10T00:50:56.881Z,10.46
2019-04-10T00:53:29.533Z,10.50
2019-04-10T00:56:01.933Z,10.45
2019-04-10T00:58:33.896Z,10.43
2019-04-10T01:01:05.701Z,10.42
2019-04-10T01:03:44.270Z,10.40
2019-04-10T01:06:16.875Z,10.45
2019-04-10T01:08:48.924Z,10.45
2019-04-10T01:11:21.124Z,10.43
2019-04-10T01:13:53.711Z,10.40
2019-04-10T01:16:25.555Z,10.38
2019-04-10T01:19:15.484Z,10.30
2019-04-10T01:22:00.984Z,10.30
2019-04-10T01:24:25.783Z,10.28
2019-04-10T01:26:57.796Z,10.32
2019-04-10T01:29:41.823Z,10.22
2019-04-10T01:35:44.681Z,10.29
2019-04-10T01:41:50.148Z,10.13
2019-04-10T01:44:24.734Z,10.16
2019-04-10T01:52:39.218Z,10.13
2019-04-10T01:55:20.079Z,10.11
2019-04-10T01:57:44.880Z,10.10
2019-04-10T02:00:19.545Z,10.13
2019-04-10T02:02:52.508Z,10.09
2019-04-10T02:05:24.857Z,10.07
2019-04-10T02:08:03.210Z,10.02
2019-04-10T02:10:30.069Z,10.06
2019-04-10T02:13:03.153Z,10.07
2019-04-10T02:15:34.945Z,9.89
2019-04-10T02:18:06.734Z,9.89
2019-04-10T02:20:38.913Z,9.93
2019-04-10T02:23:10.745Z,9.98
2019-04-10T02:25:43.188Z,10.00
2019-04-10T02:28:15.124Z,10.05
2019-04-10T02:30:47.890Z,10.09
2019-04-10T02:33:19.796Z,10.08
2019-04-10T02:35:52.626Z,10.07
2019-04-10T02:38:40.085Z,9.95
2019-04-10T02:40:59.202Z,9.90
2019-04-10T02:43:31.187Z,9.88
2019-04-10T02:46:04.067Z,9.83
2019-04-10T02:48:36.301Z,9.87
2019-04-10T02:51:09.593Z,9.80
2019-04-10T02:53:43.696Z,9.66
2019-04-10T02:56:18.056Z,9.85
2019-04-10T02:58:51.563Z,9.72
2019-04-10T03:01:25.175Z,9.73
2019-04-10T03:03:57.301Z,9.78
2019-04-10T03:06:29.376Z,9.83
2019-04-10T03:09:16.333Z,9.90
2019-04-10T03:11:35.830Z,10.05
2019-04-10T03:14:08.089Z,10.01
2019-04-10T03:16:41.704Z,10.13
2019-04-10T03:19:13.757Z,10.10
2019-04-10T03:21:47.063Z,10.03
2019-04-10T03:24:19.192Z,10.02
2019-04-10T03:26:52.067Z,10.04
2019-04-10T03:29:24.121Z,10.04
2019-04-10T03:31:57.573Z,10.04
2019-04-10T03:34:34.280Z,10.19
2019-04-10T03:37:04.890Z,10.19
2019-04-10T03:39:36.632Z,10.21
2019-04-10T03:42:08.570Z,10.28
2019-04-10T03:44:40.879Z,10.31
2019-04-10T03:47:13.325Z,10.34
2019-04-10T03:49:46.778Z,10.40
2019-04-10T03:52:19.003Z,10.46
2019-04-10T03:54:50.922Z,10.46
2019-04-10T03:57:22.677Z,10.51
2019-04-10T03:59:55.943Z,10.56
2019-04-10T04:02:27.991Z,10.59
2019-04-10T04:04:59.726Z,10.53
2019-04-10T04:07:33.105Z,10.65
2019-04-10T04:10:06.358Z,10.59
2019-04-10T04:12:39.155Z,10.58
2019-04-10T04:15:13.555Z,10.54
2019-04-10T04:17:46.496Z,10.48
2019-04-10T04:20:19.098Z,10.40
2019-04-10T04:22:50.958Z,10.34
2019-04-10T04:25:22.685Z,10.45
2019-04-10T04:27:55.738Z,10.34
2019-04-10T04:30:30.350Z,10.45
2019-04-10T04:33:02.525Z,10.33
2019-04-10T04:35:34.679Z,10.44
2019-04-10T04:38:07.148Z,10.52
2019-04-10T04:40:39.153Z,10.75
2019-04-10T04:43:10.875Z,10.64
2019-04-10T04:45:42.595Z,10.49
2019-04-10T04:48:14.578Z,10.33
2019-04-10T04:50:47.061Z,10.34
2019-04-10T04:53:18.783Z,10.30
2019-04-10T04:55:51.421Z,10.34
2019-04-10T04:58:24.266Z,10.29
2019-04-10T05:00:58.483Z,10.27
2019-04-10T05:03:31.392Z,10.43
2019-04-10T05:06:05.604Z,10.34
2019-04-10T05:08:37.910Z,10.36
2019-04-10T05:11:09.885Z,10.26
2019-04-10T05:13:42.417Z,10.24
2019-04-10T05:16:14.900Z,10.40
2019-04-10T05:18:47.613Z,10.40
2019-04-10T05:21:19.528Z,10.27
2019-04-10T05:23:51.345Z,10.32
2019-04-10T05:26:24.261Z,10.25
2019-04-10T05:28:57.026Z,10.30
2019-04-10T05:31:30.178Z,10.47
2019-04-10T05:34:02.977Z,10.43
2019-04-10T05:36:34.943Z,10.44
2019-04-10T05:39:08.616Z,10.27
2019-04-10T05:41:40.373Z,10.19
2019-04-10T05:44:12.153Z,10.27
2019-04-10T05:46:45.227Z,10.27
2019-04-10T05:49:17.314Z,10.35
2019-04-10T05:51:50.091Z,10.25
2019-04-10T05:54:24.601Z,10.20
2019-04-10T05:56:58.994Z,10.34
2019-04-10T05:59:32.468Z,10.44
2019-04-10T06:02:05.317Z,10.50
2019-04-10T06:04:37.827Z,10.46
2019-04-10T06:07:10.647Z,10.41
2019-04-10T06:09:54.017Z,10.38
2019-04-10T06:12:16.091Z,10.24
2019-04-10T06:14:48.531Z,10.32
2019-04-10T06:17:20.748Z,10.34
2019-04-10T06:19:53.114Z,10.40
2019-04-10T06:22:28.408Z,10.46
2019-04-10T06:25:00.767Z,10.45
2019-04-10T06:27:34.440Z,10.63
2019-04-10T06:30:07.889Z,10.57
2019-04-10T06:32:40.208Z,10.63
2019-04-10T06:35:13.495Z,10.59
2019-04-10T06:37:46.414Z,10.67
2019-04-10T06:40:21.083Z,10.68
2019-04-10T06:42:53.924Z,10.71
2019-04-10T06:45:26.267Z,10.66
2019-04-10T06:47:58.425Z,10.67
2019-04-10T06:50:31.482Z,10.79
2019-04-10T06:53:04.171Z,11.03
2019-04-10T06:55:36.480Z,11.07
2019-04-10T06:58:09.788Z,11.09
2019-04-10T07:00:46.679Z,11.37
2019-04-10T07:03:16.943Z,11.41
2019-04-10T07:06:02.467Z,11.48
2019-04-10T07:08:27.262Z,11.31
2019-04-10T07:11:05.110Z,11.32
2019-04-10T07:13:36.847Z,11.37
2019-04-10T07:16:09.544Z,11.42
2019-04-10T07:18:41.220Z,11.46
2019-04-10T07:21:14.583Z,11.50
2019-04-10T07:23:46.937Z,11.69
2019-04-10T07:26:29.122Z,11.86
2019-04-10T07:28:53.358Z,12.10
2019-04-10T07:31:27.435Z,12.30
2019-04-10T07:33:59.962Z,12.26
2019-04-10T07:36:32.898Z,12.04
2019-04-10T07:39:05.501Z,12.14
2019-04-10T07:41:41.720Z,12.12
2019-04-10T07:44:13.542Z,12.19
2019-04-10T07:46:46.535Z,12.20
2019-04-10T07:49:19.820Z,12.33
2019-04-10T07:51:53.902Z,12.37
2019-04-10T07:54:26.723Z,12.39
2019-04-10T07:56:58.492Z,12.27
2019-04-10T07:59:31.464Z,12.52
2019-04-10T08:02:05.947Z,12.55
2019-04-10T08:04:37.408Z,12.52
2019-04-10T08:07:09.526Z,12.30
2019-04-10T08:09:42.943Z,12.39
2019-04-10T08:12:16.073Z,12.52
2019-04-10T08:14:48.902Z,12.53
2019-04-10T08:17:21.795Z,12.73
2019-04-10T08:19:53.668Z,12.86
2019-04-10T08:22:26.433Z,12.99
2019-04-10T08:24:58.264Z,13.51
2019-04-10T08:27:30.022Z,14.20
2019-04-10T08:30:01.768Z,14.25
2019-04-10T08:32:47.306Z,14.00
2019-04-10T08:35:08.970Z,14.06
2019-04-10T08:37:41.159Z,13.96
2019-04-10T08:40:13.514Z,13.86
2019-04-10T08:42:46.623Z,13.74
2019-04-10T08:45:19.011Z,13.66
2019-04-10T08:47:52.644Z,13.61
2019-04-10T08:50:24.670Z,13.32
2019-04-10T08:52:56.405Z,13.29
2019-04-10T08:55:28.315Z,13.09
2019-04-10T08:58:00.756Z,13.25
2019-04-10T09:00:32.853Z,13.61
2019-04-10T09:03:04.813Z,13.78
2019-04-10T09:05:38.569Z,15.08
2019-04-10T09:08:10.804Z,15.56
2019-04-10T09:10:42.943Z,16.02
2019-04-10T09:13:14.744Z,17.51
2019-04-10T09:15:47.943Z,17.75
2019-04-10T09:18:20.972Z,16.76
2019-04-10T09:20:53.143Z,16.18
2019-04-10T09:23:36.232Z,15.80
2019-04-10T09:25:59.571Z,15.48
2019-04-10T09:28:33.307Z,14.83
2019-04-10T09:31:05.172Z,14.88
2019-04-10T09:33:37.029Z,14.82
2019-04-10T09:36:09.087Z,14.99
2019-04-10T09:38:41.290Z,14.95
2019-04-10T09:41:13.998Z,14.95
2019-04-10T09:43:51.153Z,14.90
2019-04-10T09:46:22.869Z,14.53
2019-04-10T09:48:54.676Z,14.84
2019-04-10T09:51:26.682Z,14.59
2019-04-10T09:53:59.437Z,15.05
2019-04-10T09:56:32.078Z,15.08
2019-04-10T09:59:04.045Z,14.86
2019-04-10T10:01:37.958Z,14.32
2019-04-10T10:04:10.044Z,13.98
2019-04-10T10:06:41.770Z,14.29
2019-04-10T10:09:15.357Z,14.18
2019-04-10T10:11:49.753Z,14.20
2019-04-10T10:14:21.678Z,15.35
2019-04-10T10:16:53.397Z,15.77
2019-04-10T10:19:25.960Z,15.41
2019-04-10T10:22:01.625Z,15.87
2019-04-10T10:24:33.113Z,16.90
2019-04-10T10:27:05.345Z,18.76
2019-04-10T10:29:37.684Z,20.34
2019-04-10T10:32:09.446Z,20.89
2019-04-10T10:34:41.180Z,20.98
2019-04-10T10:37:13.010Z,18.09
2019-04-10T10:39:47.242Z,17.89
2019-04-10T10:42:19.334Z,17.79
2019-04-10T10:44:58.487Z,17.59
2019-04-10T10:47:30.702Z,17.28
2019-04-10T10:50:04.613Z,16.73
2019-04-10T10:52:37.631Z,16.15
2019-04-10T10:55:11.663Z,15.54
2019-04-10T10:57:45.446Z,16.69
2019-04-10T11:00:18.921Z,17.63
2019-04-10T11:02:51.834Z,19.73
2019-04-10T11:05:23.715Z,19.42
2019-04-10T11:07:55.889Z,20.56
2019-04-10T11:10:27.716Z,19.55
2019-04-10T11:13:00.074Z,18.43
2019-04-10T11:15:32.048Z,18.29
2019-04-10T11:18:04.288Z,17.87
2019-04-10T11:20:36.476Z,18.56
2019-04-10T11:23:09.406Z,19.54
2019-04-10T11:25:43.865Z,20.47
2019-04-10T11:28:16.273Z,20.67
2019-04-10T11:30:49.167Z,21.62
2019-04-10T11:33:22.294Z,20.18
2019-04-10T11:35:55.234Z,20.64
2019-04-10T11:38:27.336Z,21.68
2019-04-10T11:41:00.108Z,21.73
2019-04-10T11:43:33.642Z,21.50
2019-04-10T11:46:07.810Z,21.18
2019-04-10T11:48:41.854Z,22.05
2019-04-10T11:51:14.144Z,20.92
2019-04-10T11:53:48.700Z,22.49
2019-04-10T11:56:21.094Z,21.67
2019-04-10T11:58:56.318Z,20.86
2019-04-10T12:01:30.943Z,19.57
2019-04-10T12:04:05.124Z,17.68
2019-04-10T12:06:38.218Z,16.98
2019-04-10T12:09:56.936Z,19.12
2019-04-10T12:11:50.299Z,19.93
2019-04-10T12:14:23.638Z,19.94
2019-04-10T12:16:55.823Z,19.97
2019-04-10T12:19:28.946Z,20.15
2019-04-10T12:22:01.210Z,19.34
2019-04-10T12:24:32.912Z,18.30
2019-04-10T12:27:04.685Z,18.49
2019-04-10T12:29:38.467Z,19.27
2019-04-10T12:32:10.673Z,19.65
2019-04-10T12:34:43.244Z,19.89
2019-04-10T12:37:15.401Z,19.32
2019-04-10T12:39:47.872Z,18.58
2019-04-10T12:42:21.845Z,18.05
2019-04-10T12:44:53.665Z,17.64
2019-04-10T12:47:25.944Z,17.27
2019-04-10T12:49:58.338Z,17.37
2019-04-10T12:52:30.449Z,17.46
2019-04-10T12:55:02.174Z,18.06
2019-04-10T12:57:34.736Z,17.84
2019-04-10T13:00:09.628Z,17.87
2019-04-10T13:02:42.715Z,17.76
2019-04-10T13:05:14.565Z,17.74
2019-04-10T13:07:47.775Z,18.53
2019-04-10T13:10:20.381Z,18.17
2019-04-10T13:12:53.277Z,18.13
2019-04-10T13:15:25.687Z,18.40
2019-04-10T13:17:58.398Z,19.05
2019-04-10T13:20:31.568Z,18.13
2019-04-10T13:23:04.438Z,17.43
2019-04-10T13:25:36.716Z,17.69
2019-04-10T13:28:09.867Z,17.50
2019-04-10T13:30:49.717Z,18.09
2019-04-10T13:33:16.228Z,18.32
2019-04-10T13:35:49.126Z,18.07
2019-04-10T13:38:26.592Z,17.84
2019-04-10T13:40:54.752Z,18.04
2019-04-10T13:43:27.614Z,18.41
2019-04-10T13:46:00.444Z,18.25
2019-04-10T13:48:33.230Z,18.71
2019-04-10T13:51:05.417Z,19.26
2019-04-10T13:53:37.757Z,18.41
2019-04-10T13:56:11.413Z,18.52
2019-04-10T13:58:43.130Z,19.01
2019-04-10T14:01:20.292Z,18.93
2019-04-10T14:03:52.435Z,19.05
2019-04-10T14:06:25.420Z,19.11
2019-04-10T14:09:11.894Z,20.13
2019-04-10T14:11:30.782Z,20.10
2019-04-10T14:14:04.403Z,19.51
2019-04-10T14:16:37.825Z,18.92
2019-04-10T14:19:09.842Z,18.59
2019-04-10T14:21:41.570Z,18.43
2019-04-10T14:24:13.369Z,18.51
2019-04-10T14:27:01.618Z,18.34
2019-04-10T14:29:34.328Z,18.00
2019-04-10T14:32:09.150Z,18.19
2019-04-10T14:34:40.955Z,17.80
2019-04-10T14:37:13.833Z,17.66
2019-04-10T14:39:45.563Z,17.04
2019-04-10T14:42:18.478Z,16.77
2019-04-10T14:44:50.284Z,17.41
2019-04-10T14:47:25.695Z,17.85
2019-04-10T14:49:58.026Z,18.20
2019-04-10T14:52:30.165Z,18.44
2019-04-10T14:55:02.162Z,18.19
2019-04-10T14:57:34.965Z,17.99
2019-04-10T15:00:08.862Z,18.32
2019-04-10T15:02:41.268Z,17.91
2019-04-10T15:05:13.379Z,17.63
2019-04-10T15:07:45.148Z,18.19
2019-04-10T15:10:17.059Z,19.03
2019-04-10T15:12:49.731Z,18.79
2019-04-10T15:15:21.578Z,18.51
2019-04-10T15:17:54.158Z,18.08
2019-04-10T15:20:26.009Z,17.80
2019-04-10T15:22:58.637Z,17.87
2019-04-10T15:25:31.157Z,17.86
2019-04-10T15:28:02.936Z,17.69
2019-04-10T15:30:35.593Z,18.01
2019-04-10T15:33:07.314Z,18.38
2019-04-10T15:35:39.211Z,18.37
2019-04-10T15:38:18.716Z,18.38
2019-04-10T15:40:52.572Z,18.26
2019-04-10T15:43:25.402Z,18.35
2019-04-10T15:45:57.796Z,18.47
2019-04-10T15:48:29.551Z,18.57
2019-04-10T15:51:01.339Z,18.38
2019-04-10T15:53:34.534Z,18.13
2019-04-10T15:56:06.506Z,18.15
2019-04-10T15:58:38.226Z,17.83
2019-04-10T16:01:13.966Z,18.08
2019-04-10T16:03:45.663Z,18.20
2019-04-10T16:06:17.535Z,18.03
2019-04-10T16:08:50.271Z,18.38
2019-04-10T16:11:57.068Z,18.31
2019-04-10T16:14:31.497Z,18.59
2019-04-10T16:17:22.903Z,17.90
2019-04-10T16:20:02.090Z,17.45
2019-04-10T16:22:40.548Z,17.32
2019-04-10T16:25:17.866Z,17.26
2019-04-10T16:27:50.076Z,17.33
2019-04-10T16:30:24.230Z,17.55
2019-04-10T16:32:55.988Z,17.59
2019-04-10T16:35:32.485Z,17.66
2019-04-10T16:38:05.124Z,17.38
2019-04-10T16:40:40.050Z,17.61
2019-04-10T16:43:13.843Z,17.47
2019-04-10T16:45:46.922Z,17.49
2019-04-10T16:48:18.939Z,17.28
2019-04-10T16:50:51.853Z,17.16
2019-04-10T16:53:23.787Z,17.30
2019-04-10T16:55:56.780Z,17.01
2019-04-10T16:58:29.740Z,17.10
2019-04-10T17:01:02.249Z,16.95
2019-04-10T17:03:34.255Z,16.97
2019-04-10T17:06:06.106Z,16.93
2019-04-10T17:08:40.538Z,16.93
2019-04-10T17:11:13.310Z,16.71
2019-04-10T17:13:45.075Z,16.76
2019-04-10T17:16:17.726Z,16.81
2019-04-10T17:18:49.665Z,16.93
2019-04-10T17:21:23.090Z,16.71
2019-04-10T17:23:54.859Z,16.31
2019-04-10T17:26:26.957Z,16.41
2019-04-10T17:28:58.899Z,16.47
2019-04-10T17:31:32.818Z,16.55
2019-04-10T17:34:04.673Z,16.34
2019-04-10T17:36:36.885Z,16.36
2019-04-10T17:39:16.184Z,16.06
2019-04-10T17:41:48.193Z,16.26
2019-04-10T17:44:21.658Z,16.19
2019-04-10T17:46:53.438Z,16.06
2019-04-10T17:49:25.858Z,15.84
2019-04-10T17:51:58.715Z,15.85
2019-04-10T17:54:31.408Z,15.89
2019-04-10T17:57:04.510Z,15.74
2019-04-10T17:59:36.584Z,15.62
2019-04-10T18:02:11.764Z,15.61
2019-04-10T18:04:44.242Z,15.61
2019-04-10T18:07:16.307Z,15.52
2019-04-10T18:09:48.567Z,15.33
2019-04-10T18:12:21.619Z,15.31
2019-04-10T18:14:53.576Z,15.17
2019-04-10T18:17:25.410Z,15.03
2019-04-10T18:19:57.175Z,14.82
2019-04-10T18:22:30.689Z,14.73
2019-04-10T18:25:03.484Z,14.71
2019-04-10T18:27:36.493Z,14.71
2019-04-10T18:30:09.939Z,14.45
2019-04-10T18:32:42.209Z,14.32
2019-04-10T18:35:14.330Z,14.36
2019-04-10T18:37:47.689Z,14.31
2019-04-10T18:40:21.698Z,14.22
2019-04-10T18:42:56.138Z,14.21
2019-04-10T18:45:28.025Z,14.16
2019-04-10T18:48:00.620Z,14.10
2019-04-10T18:50:32.719Z,14.05
2019-04-10T18:53:04.621Z,13.99
2019-04-10T18:55:36.861Z,14.00
2019-04-10T18:58:13.730Z,13.88
2019-04-10T19:01:14.225Z,13.73
2019-04-10T19:04:16.816Z,13.65
2019-04-10T19:06:57.293Z,13.54
2019-04-10T19:09:36.862Z,13.45
2019-04-10T19:12:08.893Z,13.45
2019-04-10T19:14:40.804Z,13.21
2019-04-10T19:17:13.007Z,13.05
2019-04-10T19:19:45.423Z,13.02
2019-04-10T19:22:20.300Z,13.02
2019-04-10T19:24:52.542Z,12.83
2019-04-10T19:27:25.549Z,12.87
2019-04-10T19:30:00.886Z,12.82
2019-04-10T19:32:37.435Z,12.79
2019-04-10T19:35:09.442Z,12.76
2019-04-10T19:37:42.666Z,12.75
2019-04-10T19:40:15.926Z,12.77
2019-04-10T19:42:47.766Z,12.70
2019-04-10T19:45:19.582Z,12.66
2019-04-10T19:47:52.719Z,12.70
2019-04-10T19:50:25.527Z,12.55
2019-04-10T19:52:57.715Z,12.55
2019-04-10T19:55:30.257Z,12.49
2019-04-10T19:58:03.830Z,12.43
2019-04-10T20:00:36.876Z,12.40
2019-04-10T20:03:11.194Z,12.39
2019-04-10T20:05:44.243Z,12.40
2019-04-10T20:08:17.516Z,12.45
2019-04-10T20:10:50.469Z,12.37
2019-04-10T20:13:22.730Z,12.41
2019-04-10T20:15:55.181Z,12.45
2019-04-10T20:18:29.632Z,12.32
2019-04-10T20:21:03.850Z,12.28
2019-04-10T20:23:36.155Z,12.39
2019-04-10T20:26:08.283Z,12.34
2019-04-10T20:28:42.805Z,12.25
2019-04-10T20:31:25.557Z,12.28
2019-04-10T20:33:57.568Z,12.25
2019-04-10T20:36:31.803Z,12.41
2019-04-10T20:39:05.949Z,12.52
2019-04-10T20:41:46.534Z,12.38
2019-04-10T20:44:12.463Z,12.22
2019-04-10T20:46:44.518Z,12.24
2019-04-10T20:49:16.689Z,12.25
2019-04-10T20:51:48.927Z,12.31
2019-04-10T20:54:22.510Z,12.32
2019-04-10T20:56:54.891Z,12.32
2019-04-10T20:59:26.924Z,12.31
2019-04-10T21:01:59.934Z,12.13
2019-04-10T21:04:33.848Z,12.07
2019-04-10T21:07:06.902Z,12.11
2019-04-10T21:09:39.584Z,12.18
2019-04-10T21:12:17.466Z,12.22
2019-04-10T21:14:47.789Z,12.17
2019-04-10T21:17:20.512Z,12.09
2019-04-10T21:19:53.692Z,12.00
2019-04-10T21:22:26.506Z,11.92
2019-04-10T21:25:00.593Z,11.87
2019-04-10T21:27:32.988Z,11.73
2019-04-10T21:30:24.226Z,11.58
2019-04-10T21:33:18.389Z,11.60
2019-04-10T21:35:51.958Z,11.39
2019-04-10T21:38:26.196Z,11.47
2019-04-10T21:40:59.393Z,11.39
2019-04-10T21:43:32.624Z,11.47
2019-04-10T21:46:06.085Z,11.47
2019-04-10T21:48:39.104Z,11.44
2019-04-10T21:51:12.204Z,11.42
2019-04-10T21:53:45.162Z,11.12
2019-04-10T21:56:18.075Z,11.01
2019-04-10T21:58:50.076Z,10.91
2019-04-10T22:01:24.244Z,10.99
2019-04-10T22:03:58.482Z,11.15
2019-04-10T22:06:40.168Z,11.23
2019-04-10T22:09:30.541Z,11.34
2019-04-10T22:12:22.197Z,11.29
2019-04-10T22:14:43.872Z,11.18
2019-04-10T22:17:17.493Z,11.06
2019-04-10T22:19:49.322Z,10.97
2019-04-10T22:22:22.255Z,11.00
2019-04-10T22:24:54.764Z,10.96
2019-04-10T22:27:29.553Z,11.13
2019-04-10T22:30:02.896Z,11.14
2019-04-10T22:32:36.179Z,11.06
2019-04-10T22:35:08.966Z,11.11
2019-04-10T22:37:41.290Z,10.94
2019-04-10T22:40:13.132Z,10.98
2019-04-10T22:42:47.873Z,11.00
2019-04-10T22:45:30.910Z,11.05
2019-04-10T22:48:04.048Z,11.01
2019-04-10T22:50:36.474Z,10.96
2019-04-10T22:53:08.918Z,10.89
2019-04-10T22:55:42.060Z,10.79
2019-04-10T22:58:15.325Z,10.73
2019-04-10T23:00:48.844Z,10.78
2019-04-10T23:03:22.318Z,10.58
2019-04-10T23:05:56.492Z,10.45
2019-04-10T23:08:28.898Z,10.45
2019-04-10T23:11:01.481Z,10.65
2019-04-10T23:13:36.305Z,10.57
2019-04-10T23:16:09.266Z,10.64
2019-04-10T23:18:41.409Z,10.59
2019-04-10T23:21:14.472Z,10.56
2019-04-10T23:23:47.523Z,10.61
2019-04-10T23:26:24.942Z,10.51
2019-04-10T23:28:57.897Z,10.41
2019-04-10T23:31:29.888Z,10.48
2019-04-10T23:34:01.720Z,10.38
2019-04-10T23:36:34.027Z,10.36
2019-04-10T23:39:08.103Z,10.34
2019-04-10T23:41:40.158Z,10.26
2019-04-10T23:44:13.565Z,10.27
2019-04-10T23:46:47.466Z,10.18
2019-04-10T23:49:19.525Z,10.04
2019-04-10T23:51:53.603Z,9.99
2019-04-10T23:54:27.032Z,10.00
2019-04-10T23:56:59.104Z,10.03
2019-04-10T23:59:30.930Z,9.99
